createdAt,value
2019-05-18T00:00:10.843Z,90.70
2019-05-18T00:02:40.216Z,91.10
2019-05-18T00:05:09.899Z,91.30
2019-05-18T00:07:39.278Z,91.50
2019-05-18T00:10:09.126Z,91.80
2019-05-18T00:12:38.575Z,91.90
2019-05-18T00:15:09.625Z,91.80
2019-05-18T00:17:39.066Z,91.50
2019-05-18T00:20:09.430Z,91.70
2019-05-18T00:22:38.886Z,91.70
2019-05-18T00:25:08.554Z,91.70
2019-05-18T00:27:37.878Z,91.60
2019-05-18T00:30:09.687Z,91.50
2019-05-18T00:32:39.015Z,92.00
2019-05-18T00:35:08.862Z,92.00
2019-05-18T00:37:38.183Z,91.80
2019-05-18T00:40:08.621Z,92.00
2019-05-18T00:42:37.934Z,92.40
2019-05-18T00:45:11.706Z,92.60
2019-05-18T00:47:42.228Z,92.60
2019-05-18T00:50:12.148Z,92.80
2019-05-18T00:52:41.530Z,92.80
2019-05-18T00:55:11.279Z,92.80
2019-05-18T00:57:40.608Z,92.70
2019-05-18T01:00:10.826Z,92.70
2019-05-18T01:02:40.148Z,93.10
2019-05-18T01:05:09.814Z,93.10
2019-05-18T01:07:39.128Z,92.90
2019-05-18T01:10:09.071Z,92.80
2019-05-18T01:12:38.642Z,92.60
2019-05-18T01:15:08.375Z,92.70
2019-05-18T01:17:37.690Z,92.70
2019-05-18T01:20:09.143Z,92.50
2019-05-18T01:22:38.521Z,92.60
2019-05-18T01:25:08.536Z,92.60
2019-05-18T01:27:37.966Z,92.60
2019-05-18T01:30:10.386Z,92.80
2019-05-18T01:32:39.719Z,92.90
2019-05-18T01:35:09.940Z,92.80
2019-05-18T01:37:39.348Z,92.90
2019-05-18T01:40:09.175Z,93.00
2019-05-18T01:42:38.590Z,93.10
2019-05-18T01:45:16.728Z,93.10
2019-05-18T01:47:40.497Z,93.20
2019-05-18T01:50:10.320Z,93.00
2019-05-18T01:52:39.698Z,93.10
2019-05-18T01:55:09.411Z,93.30
2019-05-18T01:57:38.812Z,93.30
2019-05-18T02:00:09.170Z,93.20
2019-05-18T02:02:38.515Z,93.30
2019-05-18T02:05:08.411Z,92.80
2019-05-18T02:07:37.781Z,93.00
2019-05-18T02:10:07.637Z,93.20
2019-05-18T02:12:37.046Z,93.30
2019-05-18T02:15:07.280Z,93.10
2019-05-18T02:17:36.600Z,93.50
2019-05-18T02:20:06.844Z,93.60
2019-05-18T02:22:36.361Z,93.50
2019-05-18T02:25:09.769Z,93.50
2019-05-18T02:27:39.119Z,93.30
2019-05-18T02:30:10.797Z,93.40
2019-05-18T02:32:40.117Z,93.40
2019-05-18T02:35:09.497Z,93.20
2019-05-18T02:37:38.838Z,93.40
2019-05-18T02:40:08.778Z,93.40
2019-05-18T02:42:38.182Z,93.40
2019-05-18T02:45:09.040Z,93.60
2019-05-18T02:47:38.374Z,93.70
2019-05-18T02:50:10.354Z,93.60
2019-05-18T02:52:39.779Z,93.70
2019-05-18T02:55:09.333Z,93.80
2019-05-18T02:57:38.674Z,93.60
2019-05-18T03:00:09.976Z,93.60
2019-05-18T03:02:39.318Z,93.60
2019-05-18T03:05:09.535Z,93.70
2019-05-18T03:07:38.955Z,93.70
2019-05-18T03:10:08.682Z,93.60
2019-05-18T03:12:38.272Z,93.50
2019-05-18T03:15:09.091Z,93.50
2019-05-18T03:17:38.503Z,93.30
2019-05-18T03:20:08.833Z,93.30
2019-05-18T03:22:38.225Z,94.10
2019-05-18T03:25:07.975Z,93.50
2019-05-18T03:27:37.345Z,93.80
2019-05-18T03:30:09.524Z,93.70
2019-05-18T03:32:38.844Z,93.70
2019-05-18T03:35:08.406Z,93.60
2019-05-18T03:37:37.825Z,93.60
2019-05-18T03:40:07.761Z,93.70
2019-05-18T03:42:37.143Z,93.80
2019-05-18T03:45:07.669Z,93.90
2019-05-18T03:47:37.018Z,93.80
2019-05-18T03:50:08.038Z,93.80
2019-05-18T03:52:37.384Z,93.80
2019-05-18T03:55:06.837Z,93.90
2019-05-18T03:57:36.206Z,93.80
2019-05-18T04:00:11.386Z,94.00
2019-05-18T04:02:40.777Z,94.10
2019-05-18T04:05:10.226Z,94.20
2019-05-18T04:07:39.635Z,94.10
2019-05-18T04:10:10.769Z,93.90
2019-05-18T04:12:40.099Z,93.80
2019-05-18T04:15:10.732Z,93.80
2019-05-18T04:17:40.079Z,93.90
2019-05-18T04:20:10.093Z,93.80
2019-05-18T04:22:39.440Z,94.00
2019-05-18T04:25:08.913Z,94.10
2019-05-18T04:27:38.238Z,93.80
2019-05-18T04:30:09.691Z,93.70
2019-05-18T04:32:39.134Z,93.40
2019-05-18T04:35:08.932Z,93.10
2019-05-18T04:37:38.343Z,93.00
2019-05-18T04:40:08.565Z,93.00
2019-05-18T04:42:37.918Z,93.20
2019-05-18T04:45:08.361Z,93.20
2019-05-18T04:47:37.682Z,93.20
2019-05-18T04:50:09.433Z,93.30
2019-05-18T04:52:38.761Z,93.40
2019-05-18T04:55:08.240Z,93.50
2019-05-18T04:57:37.552Z,93.80
2019-05-18T05:00:09.240Z,93.70
2019-05-18T05:02:38.630Z,93.80
2019-05-18T05:05:08.213Z,93.70
2019-05-18T05:07:37.497Z,93.70
2019-05-18T05:10:08.757Z,93.70
2019-05-18T05:12:38.095Z,93.80
2019-05-18T05:15:08.041Z,94.10
2019-05-18T05:17:37.410Z,94.30
2019-05-18T05:20:19.462Z,94.40
2019-05-18T05:22:39.390Z,94.40
2019-05-18T05:25:09.046Z,94.30
2019-05-18T05:27:38.352Z,94.20
2019-05-18T05:30:10.690Z,94.30
2019-05-18T05:32:40.010Z,94.30
2019-05-18T05:35:09.492Z,94.40
2019-05-18T05:37:38.812Z,94.30
2019-05-18T05:40:08.532Z,93.90
2019-05-18T05:42:38.028Z,93.40
2019-05-18T05:45:08.274Z,93.30
2019-05-18T05:47:37.596Z,93.00
2019-05-18T05:50:10.012Z,92.60
2019-05-18T05:52:39.387Z,92.20
2019-05-18T05:55:09.910Z,91.40
2019-05-18T05:57:39.220Z,91.00
2019-05-18T06:00:10.305Z,90.50
2019-05-18T06:02:39.608Z,88.10
2019-05-18T06:05:09.299Z,88.60
2019-05-18T06:07:38.688Z,87.90
2019-05-18T06:10:09.225Z,88.60
2019-05-18T06:12:38.611Z,86.90
2019-05-18T06:15:11.031Z,86.20
2019-05-18T06:17:40.331Z,87.00
2019-05-18T06:20:10.173Z,86.60
2019-05-18T06:22:39.495Z,86.40
2019-05-18T06:25:09.512Z,85.20
2019-05-18T06:27:38.919Z,84.10
2019-05-18T06:30:10.060Z,84.90
2019-05-18T06:32:39.459Z,85.40
2019-05-18T06:35:09.335Z,85.70
2019-05-18T06:37:38.784Z,85.10
2019-05-18T06:40:08.581Z,84.50
2019-05-18T06:42:37.903Z,85.50
2019-05-18T06:45:08.440Z,84.00
2019-05-18T06:47:37.826Z,82.90
2019-05-18T06:50:12.194Z,80.80
2019-05-18T06:52:40.905Z,80.50
2019-05-18T06:55:10.305Z,79.30
2019-05-18T06:57:40.373Z,80.10
2019-05-18T07:00:11.908Z,80.20
2019-05-18T07:02:41.201Z,79.30
2019-05-18T07:05:10.764Z,80.30
2019-05-18T07:07:40.082Z,79.80
2019-05-18T07:10:09.761Z,80.40
2019-05-18T07:12:39.088Z,80.30
2019-05-18T07:15:08.809Z,79.50
2019-05-18T07:17:38.128Z,80.10
2019-05-18T07:20:09.546Z,79.70
2019-05-18T07:22:38.954Z,78.50
2019-05-18T07:25:08.420Z,78.00
2019-05-18T07:27:37.872Z,78.60
2019-05-18T07:30:11.245Z,79.50
2019-05-18T07:32:41.159Z,78.80
2019-05-18T07:35:12.768Z,78.20
2019-05-18T07:37:42.123Z,79.30
2019-05-18T07:40:11.544Z,80.40
2019-05-18T07:42:41.033Z,80.00
2019-05-18T07:45:11.196Z,80.80
2019-05-18T07:47:40.515Z,80.30
2019-05-18T07:50:10.187Z,79.90
2019-05-18T07:52:39.570Z,80.10
2019-05-18T07:55:10.002Z,80.30
2019-05-18T07:57:39.516Z,80.20
2019-05-18T08:00:09.234Z,79.70
2019-05-18T08:02:38.599Z,77.70
2019-05-18T08:05:09.097Z,77.70
2019-05-18T08:07:38.506Z,77.90
2019-05-18T08:10:08.537Z,77.70
2019-05-18T08:12:38.010Z,77.70
2019-05-18T08:15:09.812Z,77.00
2019-05-18T08:17:39.252Z,75.50
2019-05-18T08:20:09.283Z,76.50
2019-05-18T08:22:38.738Z,74.10
2019-05-18T08:25:10.503Z,74.00
2019-05-18T08:27:39.915Z,74.70
2019-05-18T08:30:09.637Z,73.40
2019-05-18T08:32:39.055Z,73.80
2019-05-18T08:35:08.746Z,74.30
2019-05-18T08:37:38.174Z,74.90
2019-05-18T08:40:10.940Z,74.00
2019-05-18T08:42:40.422Z,73.10
2019-05-18T08:45:10.717Z,73.90
2019-05-18T08:47:40.060Z,72.70
2019-05-18T08:50:10.042Z,71.60
2019-05-18T08:52:39.363Z,71.70
2019-05-18T08:55:09.103Z,71.20
2019-05-18T08:57:38.519Z,71.30
2019-05-18T09:00:09.723Z,71.30
2019-05-18T09:02:39.079Z,72.50
2019-05-18T09:05:08.930Z,71.30
2019-05-18T09:07:38.277Z,71.80
2019-05-18T09:10:09.061Z,71.90
2019-05-18T09:12:38.381Z,71.00
2019-05-18T09:15:08.418Z,70.40
2019-05-18T09:17:37.906Z,67.70
2019-05-18T09:20:08.967Z,68.70
2019-05-18T09:22:38.382Z,68.90
2019-05-18T09:25:08.204Z,66.50
2019-05-18T09:27:37.542Z,66.50
2019-05-18T09:30:09.452Z,67.40
2019-05-18T09:32:39.039Z,70.00
2019-05-18T09:35:09.769Z,69.30
2019-05-18T09:37:42.077Z,67.80
2019-05-18T09:40:11.937Z,68.00
2019-05-18T09:42:44.255Z,68.90
2019-05-18T09:45:17.192Z,68.50
2019-05-18T09:47:46.536Z,68.30
2019-05-18T09:50:16.148Z,67.90
2019-05-18T09:52:46.296Z,67.60
2019-05-18T09:55:16.410Z,66.60
2019-05-18T09:57:45.746Z,64.10
2019-05-18T10:00:15.303Z,66.00
2019-05-18T10:02:44.717Z,65.60
2019-05-18T10:05:14.715Z,65.10
2019-05-18T10:07:44.076Z,64.60
2019-05-18T10:10:13.738Z,62.60
2019-05-18T10:12:43.069Z,63.90
2019-05-18T10:15:13.394Z,64.70
2019-05-18T10:17:43.186Z,65.40
2019-05-18T10:20:14.460Z,61.60
2019-05-18T10:22:55.077Z,61.50
2019-05-18T10:25:15.221Z,62.40
2019-05-18T10:27:44.561Z,61.70
2019-05-18T10:30:14.211Z,59.40
2019-05-18T10:32:43.641Z,59.40
2019-05-18T10:35:13.776Z,60.60
2019-05-18T10:37:43.226Z,58.30
2019-05-18T10:40:13.050Z,59.70
2019-05-18T10:42:42.394Z,60.10
2019-05-18T10:45:13.313Z,60.00
2019-05-18T10:47:42.645Z,60.00
2019-05-18T10:50:12.561Z,58.60
2019-05-18T10:52:41.918Z,59.20
2019-05-18T10:55:11.574Z,60.00
2019-05-18T10:57:40.916Z,59.50
2019-05-18T11:00:12.206Z,61.30
2019-05-18T11:02:41.591Z,57.70
2019-05-18T11:05:11.518Z,57.00
2019-05-18T11:07:41.075Z,58.80
2019-05-18T11:10:11.792Z,59.40
2019-05-18T11:12:41.366Z,57.80
2019-05-18T11:15:11.699Z,57.10
2019-05-18T11:17:41.074Z,57.50
2019-05-18T11:20:12.711Z,54.40
2019-05-18T11:22:42.030Z,52.10
2019-05-18T11:25:11.829Z,49.80
2019-05-18T11:27:41.215Z,48.10
2019-05-18T11:30:11.859Z,50.00
2019-05-18T11:32:41.165Z,49.80
2019-05-18T11:35:12.338Z,44.30
2019-05-18T11:37:41.696Z,44.90
2019-05-18T11:40:11.638Z,45.10
2019-05-18T11:42:41.021Z,47.20
2019-05-18T11:45:13.594Z,49.50
2019-05-18T11:47:42.906Z,49.10
2019-05-18T11:50:14.521Z,48.30
2019-05-18T11:52:43.978Z,47.80
2019-05-18T11:55:15.086Z,47.80
2019-05-18T11:57:44.406Z,48.50
2019-05-18T12:00:15.249Z,46.40
2019-05-18T12:02:44.636Z,48.20
2019-05-18T12:05:14.402Z,49.90
2019-05-18T12:07:43.713Z,49.40
2019-05-18T12:10:14.059Z,49.40
2019-05-18T12:12:43.389Z,49.10
2019-05-18T12:15:13.321Z,48.80
2019-05-18T12:17:42.635Z,48.50
2019-05-18T12:20:12.995Z,48.50
2019-05-18T12:22:42.307Z,49.50
2019-05-18T12:25:11.941Z,48.80
2019-05-18T12:27:41.335Z,47.10
2019-05-18T12:30:12.275Z,48.60
2019-05-18T12:32:41.606Z,49.40
2019-05-18T12:35:11.145Z,49.60
2019-05-18T12:37:40.453Z,48.70
2019-05-18T12:40:10.711Z,46.60
2019-05-18T12:42:40.011Z,44.70
2019-05-18T12:45:09.677Z,46.20
2019-05-18T12:47:39.135Z,45.80
2019-05-18T12:50:10.081Z,47.00
2019-05-18T12:52:39.459Z,48.10
2019-05-18T12:55:09.426Z,47.50
2019-05-18T12:57:38.875Z,46.70
2019-05-18T13:00:14.771Z,47.50
2019-05-18T13:02:44.091Z,48.00
2019-05-18T13:05:13.827Z,48.10
2019-05-18T13:07:43.142Z,47.80
2019-05-18T13:10:13.385Z,48.90
2019-05-18T13:12:42.705Z,48.70
2019-05-18T13:15:13.045Z,47.20
2019-05-18T13:17:42.431Z,46.50
2019-05-18T13:20:14.531Z,44.90
2019-05-18T13:22:44.001Z,44.90
2019-05-18T13:25:15.743Z,42.10
2019-05-18T13:27:45.059Z,43.30
2019-05-18T13:30:19.386Z,44.00
2019-05-18T13:32:46.312Z,44.80
2019-05-18T13:35:15.984Z,46.20
2019-05-18T13:37:45.307Z,46.90
2019-05-18T13:40:16.347Z,47.30
2019-05-18T13:42:45.654Z,47.40
2019-05-18T13:45:17.026Z,47.70
2019-05-18T13:47:46.346Z,48.30
2019-05-18T13:50:17.213Z,50.40
2019-05-18T13:52:46.530Z,53.80
2019-05-18T13:55:16.067Z,58.60
2019-05-18T13:57:45.380Z,59.90
2019-05-18T14:00:16.260Z,61.70
2019-05-18T14:02:45.572Z,63.90
2019-05-18T14:05:16.783Z,65.20
2019-05-18T14:07:46.111Z,67.00
2019-05-18T14:10:17.460Z,67.90
2019-05-18T14:12:46.779Z,67.70
2019-05-18T14:15:17.113Z,68.80
2019-05-18T14:17:46.568Z,69.20
2019-05-18T14:20:16.948Z,71.00
2019-05-18T14:22:46.261Z,72.60
2019-05-18T14:25:20.235Z,72.80
2019-05-18T14:27:46.701Z,74.00
2019-05-18T14:30:16.468Z,74.40
2019-05-18T14:32:45.801Z,75.60
2019-05-18T14:35:15.264Z,77.40
2019-05-18T14:37:44.586Z,79.50
2019-05-18T14:40:14.395Z,79.60
2019-05-18T14:42:43.694Z,78.30
2019-05-18T14:45:13.074Z,78.70
2019-05-18T14:47:42.414Z,76.40
2019-05-18T14:50:12.172Z,80.20
2019-05-18T14:52:41.507Z,80.50
2019-05-18T14:55:11.236Z,78.30
2019-05-18T14:57:40.577Z,77.30
2019-05-18T15:00:10.840Z,79.00
2019-05-18T15:02:40.177Z,78.70
2019-05-18T15:05:10.802Z,81.40
2019-05-18T15:07:40.139Z,80.00
2019-05-18T15:10:10.454Z,79.10
2019-05-18T15:12:39.818Z,79.20
2019-05-18T15:15:10.047Z,79.60
2019-05-18T15:17:39.479Z,76.80
2019-05-18T15:20:09.802Z,81.30
2019-05-18T15:22:39.193Z,78.90
2019-05-18T15:25:10.213Z,81.50
2019-05-18T15:27:39.557Z,82.50
2019-05-18T15:30:09.566Z,77.30
2019-05-18T15:32:39.042Z,76.00
2019-05-18T15:35:09.528Z,78.60
2019-05-18T15:37:43.221Z,80.30
2019-05-18T15:40:11.354Z,82.00
2019-05-18T15:42:40.787Z,81.10
2019-05-18T15:45:10.448Z,79.10
2019-05-18T15:47:39.774Z,79.00
2019-05-18T15:50:09.721Z,79.00
2019-05-18T15:52:39.126Z,79.30
2019-05-18T15:55:09.356Z,77.20
2019-05-18T15:57:38.766Z,79.90
2019-05-18T16:00:10.947Z,81.10
2019-05-18T16:02:40.352Z,81.90
2019-05-18T16:05:10.120Z,83.10
2019-05-18T16:07:39.648Z,84.00
2019-05-18T16:10:10.470Z,85.70
2019-05-18T16:12:39.882Z,87.50
2019-05-18T16:15:10.108Z,85.20
2019-05-18T16:17:40.416Z,86.20
2019-05-18T16:20:10.930Z,84.50
2019-05-18T16:22:40.282Z,82.50
2019-05-18T16:25:09.918Z,79.70
2019-05-18T16:27:39.363Z,80.50
2019-05-18T16:30:09.734Z,80.70
2019-05-18T16:32:39.073Z,82.30
2019-05-18T16:35:11.179Z,82.90
2019-05-18T16:37:40.513Z,81.60
2019-05-18T16:40:10.342Z,80.30
2019-05-18T16:42:39.750Z,79.90
2019-05-18T16:45:09.695Z,78.30
2019-05-18T16:47:39.020Z,78.20
2019-05-18T16:50:08.840Z,77.90
2019-05-18T16:52:38.266Z,77.40
2019-05-18T16:55:09.819Z,75.70
2019-05-18T16:57:39.192Z,74.90
2019-05-18T17:00:11.204Z,74.00
2019-05-18T17:02:40.777Z,72.50
2019-05-18T17:05:10.836Z,72.90
2019-05-18T17:07:40.172Z,72.00
2019-05-18T17:10:09.798Z,70.30
2019-05-18T17:12:39.238Z,70.90
2019-05-18T17:15:09.592Z,72.10
2019-05-18T17:17:38.932Z,69.60
2019-05-18T17:20:09.666Z,67.70
2019-05-18T17:22:39.136Z,67.20
2019-05-18T17:25:09.166Z,70.00
2019-05-18T17:27:38.505Z,71.10
2019-05-18T17:30:11.320Z,72.40
2019-05-18T17:32:40.758Z,74.20
2019-05-18T17:35:11.198Z,75.90
2019-05-18T17:37:40.517Z,73.00
2019-05-18T17:40:10.039Z,74.30
2019-05-18T17:42:39.328Z,74.90
2019-05-18T17:45:09.275Z,74.80
2019-05-18T17:47:38.756Z,74.00
2019-05-18T17:50:10.685Z,73.80
2019-05-18T17:52:40.147Z,73.20
2019-05-18T17:55:10.523Z,72.10
2019-05-18T17:57:39.935Z,73.30
2019-05-18T18:00:10.685Z,74.50
2019-05-18T18:02:40.383Z,73.90
2019-05-18T18:05:10.964Z,74.40
2019-05-18T18:07:40.293Z,74.00
2019-05-18T18:10:10.514Z,73.10
2019-05-18T18:12:39.844Z,73.80
2019-05-18T18:15:10.099Z,73.60
2019-05-18T18:17:39.870Z,73.80
2019-05-18T18:20:09.623Z,75.20
2019-05-18T18:22:38.987Z,76.90
2019-05-18T18:25:09.964Z,78.20
2019-05-18T18:27:40.976Z,79.60
2019-05-18T18:30:10.830Z,80.80
2019-05-18T18:32:40.218Z,79.60
2019-05-18T18:35:10.688Z,76.80
2019-05-18T18:37:40.076Z,73.50
2019-05-18T18:40:10.048Z,73.50
2019-05-18T18:42:39.567Z,75.80
2019-05-18T18:45:10.241Z,77.20
2019-05-18T18:47:39.569Z,77.70
2019-05-18T18:50:09.198Z,78.30
2019-05-18T18:52:38.575Z,78.60
2019-05-18T18:55:08.872Z,76.90
2019-05-18T18:57:41.660Z,76.20
2019-05-18T19:00:13.832Z,78.40
2019-05-18T19:02:43.137Z,79.50
2019-05-18T19:05:12.856Z,79.60
2019-05-18T19:07:42.285Z,79.80
2019-05-18T19:10:11.918Z,79.80
2019-05-18T19:12:41.299Z,78.60
2019-05-18T19:15:11.572Z,79.20
2019-05-18T19:17:40.967Z,79.20
2019-05-18T19:20:10.733Z,79.40
2019-05-18T19:22:40.055Z,77.60
2019-05-18T19:25:09.680Z,77.60
2019-05-18T19:27:39.067Z,77.30
2019-05-18T19:30:10.231Z,78.90
2019-05-18T19:32:39.852Z,80.00
2019-05-18T19:35:09.525Z,80.00
2019-05-18T19:37:38.865Z,79.40
2019-05-18T19:40:08.602Z,78.70
2019-05-18T19:42:38.056Z,77.40
2019-05-18T19:45:08.813Z,73.40
2019-05-18T19:47:40.810Z,75.00
2019-05-18T19:50:10.973Z,77.80
2019-05-18T19:52:40.365Z,77.90
2019-05-18T19:55:10.427Z,77.20
2019-05-18T19:57:39.740Z,77.50
2019-05-18T20:00:12.617Z,80.20
2019-05-18T20:02:41.951Z,79.90
2019-05-18T20:05:11.724Z,78.30
2019-05-18T20:07:41.064Z,76.60
2019-05-18T20:10:11.920Z,77.40
2019-05-18T20:12:41.255Z,78.90
2019-05-18T20:15:10.819Z,79.80
2019-05-18T20:17:40.278Z,80.20
2019-05-18T20:20:12.077Z,79.70
2019-05-18T20:22:41.366Z,77.20
2019-05-18T20:25:12.886Z,78.10
2019-05-18T20:27:42.192Z,79.10
2019-05-18T20:30:12.249Z,77.20
2019-05-18T20:32:41.629Z,75.90
2019-05-18T20:35:11.121Z,75.50
2019-05-18T20:37:40.517Z,75.80
2019-05-18T20:40:10.142Z,75.00
2019-05-18T20:42:41.131Z,75.00
2019-05-18T20:45:10.996Z,76.50
2019-05-18T20:47:40.467Z,75.30
2019-05-18T20:50:11.555Z,74.40
2019-05-18T20:52:40.942Z,75.40
2019-05-18T20:55:10.849Z,75.00
2019-05-18T20:57:40.181Z,74.90
2019-05-18T21:00:09.812Z,76.10
2019-05-18T21:02:39.211Z,77.20
2019-05-18T21:05:08.770Z,76.70
2019-05-18T21:07:38.111Z,75.60
2019-05-18T21:10:08.562Z,74.70
2019-05-18T21:12:37.902Z,74.20
2019-05-18T21:15:09.786Z,74.90
2019-05-18T21:17:39.169Z,75.40
2019-05-18T21:20:09.032Z,76.10
2019-05-18T21:22:38.374Z,77.40
2019-05-18T21:25:10.212Z,76.70
2019-05-18T21:27:39.557Z,76.20
2019-05-18T21:30:09.300Z,76.40
2019-05-18T21:32:38.622Z,76.90
2019-05-18T21:35:08.776Z,77.80
2019-05-18T21:37:38.154Z,78.20
2019-05-18T21:40:08.040Z,79.00
2019-05-18T21:42:37.384Z,78.70
2019-05-18T21:45:09.627Z,79.40
2019-05-18T21:47:38.990Z,81.40
2019-05-18T21:50:09.915Z,81.70
2019-05-18T21:52:41.833Z,81.00
2019-05-18T21:55:10.537Z,81.60
2019-05-18T21:57:39.852Z,82.90
2019-05-18T22:00:09.782Z,83.50
2019-05-18T22:02:39.135Z,81.80
2019-05-18T22:05:09.292Z,80.60
2019-05-18T22:07:38.629Z,80.50
2019-05-18T22:10:24.786Z,80.90
2019-05-18T22:12:41.921Z,81.00
2019-05-18T22:15:11.579Z,81.10
2019-05-18T22:17:58.679Z,81.30
2019-05-18T22:20:28.000Z,81.00
2019-05-18T22:22:57.369Z,81.50
2019-05-18T22:25:26.690Z,81.50
2019-05-18T22:27:56.034Z,82.30
2019-05-18T22:30:25.421Z,82.70
2019-05-18T22:32:54.814Z,82.20
2019-05-18T22:35:24.207Z,81.40
2019-05-18T22:37:53.603Z,81.20
2019-05-18T22:40:22.982Z,81.20
2019-05-18T22:42:52.379Z,81.10
2019-05-18T22:45:21.710Z,81.10
2019-05-18T22:47:51.085Z,81.30
2019-05-18T22:50:20.505Z,81.00
2019-05-18T22:52:49.838Z,81.60
2019-05-18T22:55:19.473Z,81.80
2019-05-18T22:57:48.803Z,82.80
2019-05-18T23:00:19.419Z,83.70
2019-05-18T23:02:48.758Z,84.80
2019-05-18T23:05:18.070Z,84.40
2019-05-18T23:07:47.401Z,84.10
2019-05-18T23:10:16.970Z,83.50
2019-05-18T23:12:46.310Z,81.60
2019-05-18T23:15:15.866Z,80.40
2019-05-18T23:17:45.248Z,80.70
2019-05-18T23:20:14.615Z,81.90
2019-05-18T23:22:43.944Z,81.40
2019-05-18T23:25:13.343Z,80.90
2019-05-18T23:27:42.678Z,80.20
2019-05-18T23:30:12.156Z,81.30
2019-05-18T23:32:41.540Z,81.80
2019-05-18T23:35:11.036Z,80.90
2019-05-18T23:37:40.356Z,80.70
2019-05-18T23:40:10.027Z,80.60
2019-05-18T23:42:39.362Z,80.70
2019-05-18T23:45:09.002Z,81.00
2019-05-18T23:47:38.320Z,80.80
2019-05-18T23:50:08.072Z,80.40
2019-05-18T23:52:37.387Z,80.50
2019-05-18T23:55:07.744Z,80.00
2019-05-18T23:57:37.070Z,81.00
